Terminal Aerodrome Forecast
Issued by NWS New Orleans/Baton Rouge, LA

Home | Current Version | Previous Version | Text Only | Print | Product List | Glossary On
Versions: 1 2 3 4 5 6 7 8 9 10 11 12 13
623
FTUS44 KLIX 290525
TAFBTR
TAF
KBTR 290525Z 2906/3006 13011KT P6SM BKN023
     FM291500 15019G27KT P6SM BKN025
     FM291800 15024G30KT P6SM OVC035
     FM300200 13021G28KT P6SM OVC015=

USA.gov is the U.S. government's official web portal to all federal, state and local government web resources and services.